createdAt,value
2022-10-28T00:00:39.654Z,17.3
2022-10-28T00:01:39.623Z,17.3
2022-10-28T00:02:39.659Z,17.3
2022-10-28T00:03:39.573Z,17.2
2022-10-28T00:04:39.579Z,17.2
2022-10-28T00:05:39.585Z,17.2
2022-10-28T00:06:39.693Z,17.2
2022-10-28T00:07:39.597Z,17.2
2022-10-28T00:08:39.610Z,17.2
2022-10-28T00:09:39.611Z,17.3
2022-10-28T00:10:39.635Z,17.3
2022-10-28T00:11:39.618Z,17.3
2022-10-28T00:12:39.659Z,17.3
2022-10-28T00:13:39.609Z,17.4
2022-10-28T00:14:39.583Z,17.4
2022-10-28T00:15:39.653Z,17.3
2022-10-28T00:16:39.679Z,17.3
2022-10-28T00:17:39.560Z,17.4
2022-10-28T00:18:39.569Z,17.4
2022-10-28T00:19:39.678Z,17.4
2022-10-28T00:20:39.591Z,17.4
2022-10-28T00:21:39.685Z,17.4
2022-10-28T00:22:39.588Z,17.4
2022-10-28T00:23:39.597Z,17.5
2022-10-28T00:24:39.549Z,17.5
2022-10-28T00:25:39.578Z,17.5
2022-10-28T00:26:39.550Z,17.5
2022-10-28T00:27:39.638Z,17.4
2022-10-28T00:28:39.640Z,17.4
2022-10-28T00:29:39.628Z,17.4
2022-10-28T00:30:39.652Z,17.5
2022-10-28T00:31:39.648Z,17.5
2022-10-28T00:32:39.662Z,17.5
2022-10-28T00:33:39.568Z,17.5
2022-10-28T00:34:39.578Z,17.5
2022-10-28T00:35:39.577Z,17.5
2022-10-28T00:36:39.589Z,17.5
2022-10-28T00:37:39.603Z,17.5
2022-10-28T00:38:39.578Z,17.5
2022-10-28T00:39:39.593Z,17.5
2022-10-28T00:40:39.583Z,17.6
2022-10-28T00:41:39.564Z,17.6
2022-10-28T00:42:39.626Z,17.5
2022-10-28T00:43:39.704Z,17.6
2022-10-28T00:44:39.650Z,17.6
2022-10-28T00:45:39.647Z,17.6
2022-10-28T00:46:39.650Z,17.6
2022-10-28T00:47:39.653Z,17.6
2022-10-28T00:48:39.566Z,17.7
2022-10-28T00:49:39.568Z,17.7
2022-10-28T00:50:39.571Z,17.6
2022-10-28T00:51:39.550Z,17.6
2022-10-28T00:52:39.693Z,17.6
2022-10-28T00:53:39.827Z,17.6
2022-10-28T00:54:39.942Z,17.6
2022-10-28T00:55:39.926Z,17.6
2022-10-28T00:56:39.902Z,17.7
2022-10-28T00:57:39.889Z,17.7
2022-10-28T00:58:39.975Z,17.8
2022-10-28T00:59:40.009Z,17.8
2022-10-28T01:00:40.054Z,17.8
2022-10-28T01:01:40.095Z,17.8
2022-10-28T01:02:39.654Z,17.8
2022-10-28T01:03:39.563Z,17.7
2022-10-28T01:04:39.595Z,17.8
2022-10-28T01:05:39.570Z,17.8
2022-10-28T01:06:39.580Z,17.8
2022-10-28T01:07:39.692Z,17.8
2022-10-28T01:08:39.605Z,17.8
2022-10-28T01:09:39.601Z,17.8
2022-10-28T01:10:39.623Z,17.8
2022-10-28T01:11:39.611Z,17.8
2022-10-28T01:12:39.618Z,17.8
2022-10-28T01:13:39.634Z,17.8
2022-10-28T01:14:39.579Z,17.8
2022-10-28T01:15:39.602Z,17.9
2022-10-28T01:16:39.659Z,17.9
2022-10-28T01:17:39.560Z,17.9
2022-10-28T01:18:39.660Z,17.9
2022-10-28T01:19:39.560Z,17.8
2022-10-28T01:20:41.638Z,17.8
2022-10-28T01:21:39.568Z,17.8
2022-10-28T01:22:39.585Z,17.8
2022-10-28T01:23:39.694Z,17.8
2022-10-28T01:24:39.699Z,17.8
2022-10-28T01:25:39.630Z,17.8
2022-10-28T01:26:39.629Z,17.7
2022-10-28T01:27:39.559Z,17.7
2022-10-28T01:28:39.572Z,17.7
2022-10-28T01:29:39.644Z,17.8
2022-10-28T01:30:39.639Z,17.8
2022-10-28T01:31:39.596Z,17.8
2022-10-28T01:32:39.658Z,17.8
2022-10-28T01:33:39.653Z,17.8
2022-10-28T01:34:39.660Z,17.8
2022-10-28T01:35:39.870Z,17.7
2022-10-28T01:36:39.567Z,17.7
2022-10-28T01:37:39.595Z,17.7
2022-10-28T01:38:39.588Z,17.7
2022-10-28T01:39:39.702Z,17.6
2022-10-28T01:40:39.724Z,17.6
2022-10-28T01:41:39.562Z,17.6
2022-10-28T01:42:39.549Z,17.7
2022-10-28T01:43:39.614Z,17.7
2022-10-28T01:44:39.634Z,17.7
2022-10-28T01:45:39.652Z,17.7
2022-10-28T01:46:39.560Z,17.6
2022-10-28T01:47:39.654Z,17.7
2022-10-28T01:48:39.660Z,17.7
2022-10-28T01:49:39.662Z,17.7
2022-10-28T01:50:39.668Z,17.7
2022-10-28T01:51:39.666Z,17.7
2022-10-28T01:52:39.552Z,17.6
2022-10-28T01:53:39.566Z,17.6
2022-10-28T01:54:39.617Z,17.6
2022-10-28T01:55:39.647Z,17.6
2022-10-28T01:56:39.603Z,17.7
2022-10-28T01:57:39.711Z,17.6
2022-10-28T01:58:39.620Z,17.6
2022-10-28T01:59:39.630Z,17.7
2022-10-28T02:00:39.726Z,17.6
2022-10-28T02:01:39.810Z,17.7
2022-10-28T02:02:39.611Z,17.7
2022-10-28T02:03:39.667Z,17.6
2022-10-28T02:04:39.562Z,17.6
2022-10-28T02:05:39.677Z,17.6
2022-10-28T02:06:39.567Z,17.6
2022-10-28T02:07:39.574Z,17.6
2022-10-28T02:08:39.581Z,17.6
2022-10-28T02:09:39.589Z,17.6
2022-10-28T02:10:39.719Z,17.7
2022-10-28T02:11:39.558Z,17.7
2022-10-28T02:12:39.608Z,17.7
2022-10-28T02:13:39.626Z,17.7
2022-10-28T02:14:39.575Z,17.6
2022-10-28T02:15:39.564Z,17.7
2022-10-28T02:16:39.664Z,17.6
2022-10-28T02:17:39.652Z,17.6
2022-10-28T02:18:39.607Z,17.6
2022-10-28T02:19:39.580Z,17.6
2022-10-28T02:20:39.661Z,17.7
2022-10-28T02:21:39.665Z,17.7
2022-10-28T02:22:39.675Z,17.7
2022-10-28T02:23:39.580Z,17.7
2022-10-28T02:24:39.585Z,17.7
2022-10-28T02:25:39.713Z,17.7
2022-10-28T02:26:39.744Z,17.7
2022-10-28T02:27:39.561Z,17.7
2022-10-28T02:28:39.607Z,17.7
2022-10-28T02:29:39.624Z,17.7
2022-10-28T02:30:39.626Z,17.7
2022-10-28T02:31:39.561Z,17.7
2022-10-28T02:32:39.583Z,17.8
2022-10-28T02:33:39.651Z,17.8
2022-10-28T02:34:39.662Z,17.7
2022-10-28T02:35:39.657Z,17.7
2022-10-28T02:36:39.674Z,17.7
2022-10-28T02:37:39.698Z,17.7
2022-10-28T02:38:39.589Z,17.7
2022-10-28T02:39:39.687Z,17.7
2022-10-28T02:40:39.741Z,17.6
2022-10-28T02:41:39.628Z,17.6
2022-10-28T02:42:39.613Z,17.6
2022-10-28T02:43:39.583Z,17.7
2022-10-28T02:44:39.624Z,17.6
2022-10-28T02:45:39.620Z,17.5
2022-10-28T02:46:39.631Z,17.5
2022-10-28T02:47:39.664Z,17.6
2022-10-28T02:48:39.650Z,17.6
2022-10-28T02:49:39.653Z,17.5
2022-10-28T02:50:39.661Z,17.5
2022-10-28T02:51:39.654Z,17.5
2022-10-28T02:52:39.563Z,17.5
2022-10-28T02:53:39.677Z,17.4
2022-10-28T02:54:39.689Z,17.4
2022-10-28T02:55:39.601Z,17.4
2022-10-28T02:56:39.571Z,17.5
2022-10-28T02:57:39.708Z,17.4
2022-10-28T02:58:39.627Z,17.4
2022-10-28T02:59:39.625Z,17.5
2022-10-28T03:00:39.741Z,17.4
2022-10-28T03:01:40.053Z,17.4
2022-10-28T03:02:39.634Z,17.5
2022-10-28T03:03:39.567Z,17.5
2022-10-28T03:04:39.618Z,17.5
2022-10-28T03:05:39.624Z,17.4
2022-10-28T03:06:39.563Z,17.3
2022-10-28T03:07:39.678Z,17.3
2022-10-28T03:08:39.569Z,17.2
2022-10-28T03:09:39.571Z,17.3
2022-10-28T03:10:39.710Z,17.3
2022-10-28T03:11:39.587Z,17.4
2022-10-28T03:12:39.701Z,17.4
2022-10-28T03:13:39.702Z,17.4
2022-10-28T03:14:39.613Z,17.4
2022-10-28T03:15:39.610Z,17.3
2022-10-28T03:16:39.621Z,17.2
2022-10-28T03:17:39.629Z,17.2
2022-10-28T03:18:39.670Z,17.3
2022-10-28T03:19:39.566Z,17.3
2022-10-28T03:20:39.646Z,17.3
2022-10-28T03:21:39.645Z,17.3
2022-10-28T03:22:39.581Z,17.3
2022-10-28T03:23:39.578Z,17.3
2022-10-28T03:24:39.679Z,17.3
2022-10-28T03:25:39.695Z,17.3
2022-10-28T03:26:39.690Z,17.2
2022-10-28T03:27:39.609Z,17.1
2022-10-28T03:28:39.689Z,17.1
2022-10-28T03:29:43.437Z,17
2022-10-28T03:30:39.621Z,17.1
2022-10-28T03:31:39.649Z,17
2022-10-28T03:32:39.586Z,17
2022-10-28T03:33:39.581Z,17
2022-10-28T03:34:39.644Z,17
2022-10-28T03:35:39.576Z,17
2022-10-28T03:36:39.625Z,16.9
2022-10-28T03:37:39.683Z,16.9
2022-10-28T03:38:39.694Z,17
2022-10-28T03:39:39.674Z,16.9
2022-10-28T03:40:39.700Z,16.9
2022-10-28T03:41:39.681Z,16.8
2022-10-28T03:42:41.158Z,16.8
2022-10-28T03:43:39.619Z,16.7
2022-10-28T03:44:39.701Z,16.8
2022-10-28T03:45:39.602Z,16.8
2022-10-28T03:46:39.577Z,16.9
2022-10-28T03:47:39.577Z,16.8
2022-10-28T03:48:39.651Z,16.8
2022-10-28T03:49:39.676Z,16.7
2022-10-28T03:50:39.641Z,16.7
2022-10-28T03:51:39.644Z,16.8
2022-10-28T03:52:39.657Z,16.8
2022-10-28T03:53:39.671Z,16.8
2022-10-28T03:54:39.684Z,16.8
2022-10-28T03:55:39.602Z,16.8
2022-10-28T03:56:39.693Z,16.8
2022-10-28T03:57:39.663Z,16.8
2022-10-28T03:58:41.201Z,16.8
2022-10-28T03:59:39.640Z,16.8
2022-10-28T04:00:39.614Z,16.8
2022-10-28T04:01:39.714Z,16.8
2022-10-28T04:02:39.616Z,16.8
2022-10-28T04:03:39.734Z,16.8
2022-10-28T04:04:39.643Z,16.8
2022-10-28T04:05:39.646Z,16.8
2022-10-28T04:06:39.647Z,16.8
2022-10-28T04:07:39.643Z,16.8
2022-10-28T04:08:39.660Z,16.7
2022-10-28T04:09:39.691Z,16.7
2022-10-28T04:10:43.696Z,16.7
2022-10-28T04:11:39.688Z,16.7
2022-10-28T04:12:39.595Z,16.6
2022-10-28T04:13:39.591Z,16.6
2022-10-28T04:14:39.606Z,16.6
2022-10-28T04:15:39.718Z,16.6
2022-10-28T04:16:39.614Z,16.6
2022-10-28T04:17:39.632Z,16.6
2022-10-28T04:18:39.629Z,16.7
2022-10-28T04:19:39.645Z,16.7
2022-10-28T04:20:39.599Z,16.7
2022-10-28T04:21:39.645Z,16.7
2022-10-28T04:22:39.673Z,16.7
2022-10-28T04:23:39.673Z,16.6
2022-10-28T04:24:39.586Z,16.6
2022-10-28T04:25:39.821Z,16.6
2022-10-28T04:26:39.608Z,16.6
2022-10-28T04:27:39.579Z,16.6
2022-10-28T04:28:39.607Z,16.7
2022-10-28T04:29:39.575Z,16.7
2022-10-28T04:30:39.645Z,16.7
2022-10-28T04:31:39.623Z,16.7
2022-10-28T04:32:39.587Z,16.6
2022-10-28T04:33:39.582Z,16.6
2022-10-28T04:34:39.629Z,16.5
2022-10-28T04:35:39.634Z,16.6
2022-10-28T04:36:39.767Z,16.6
2022-10-28T04:37:39.660Z,16.6
2022-10-28T04:38:39.669Z,16.6
2022-10-28T04:39:39.620Z,16.6
2022-10-28T04:40:39.627Z,16.5
2022-10-28T04:41:39.670Z,16.6
2022-10-28T04:42:39.688Z,16.5
2022-10-28T04:43:39.701Z,16.6
2022-10-28T04:44:39.709Z,16.6
2022-10-28T04:45:39.588Z,16.6
2022-10-28T04:46:39.646Z,16.6
2022-10-28T04:47:39.632Z,16.5
2022-10-28T04:48:39.624Z,16.6
2022-10-28T04:49:39.636Z,16.6
2022-10-28T04:50:39.653Z,16.5
2022-10-28T04:51:39.704Z,16.5
2022-10-28T04:52:39.668Z,16.5
2022-10-28T04:53:39.662Z,16.5
2022-10-28T04:54:39.630Z,16.5
2022-10-28T04:55:39.706Z,16.5
2022-10-28T04:56:39.685Z,16.6
2022-10-28T04:57:39.679Z,16.5
2022-10-28T04:58:39.692Z,16.5
2022-10-28T04:59:39.596Z,16.5
2022-10-28T05:00:39.590Z,16.4
2022-10-28T05:01:39.902Z,16.5
2022-10-28T05:02:45.097Z,16.4
2022-10-28T05:03:39.626Z,16.5
2022-10-28T05:04:39.633Z,16.4
2022-10-28T05:05:39.627Z,16.3
2022-10-28T05:06:39.592Z,16.4
2022-10-28T05:07:39.622Z,16.3
2022-10-28T05:08:39.669Z,16.3
2022-10-28T05:09:39.660Z,16.4
2022-10-28T05:10:39.692Z,16.3
2022-10-28T05:11:39.667Z,16.3
2022-10-28T05:12:39.588Z,16.3
2022-10-28T05:13:39.594Z,16.3
2022-10-28T05:14:39.595Z,16.4
2022-10-28T05:15:39.615Z,16.5
2022-10-28T05:16:39.607Z,16.5
2022-10-28T05:17:39.770Z,16.5
2022-10-28T05:18:39.646Z,16.5
2022-10-28T05:19:39.635Z,16.5
2022-10-28T05:20:39.636Z,16.5
2022-10-28T05:21:39.638Z,16.5
2022-10-28T05:22:39.696Z,16.5
2022-10-28T05:23:39.654Z,16.6
2022-10-28T05:24:39.665Z,16.6
2022-10-28T05:25:39.688Z,16.5
2022-10-28T05:26:39.602Z,16.5
2022-10-28T05:27:39.641Z,16.5
2022-10-28T05:28:39.689Z,16.5
2022-10-28T05:29:39.698Z,16.5
2022-10-28T05:30:39.593Z,16.6
2022-10-28T05:31:39.598Z,16.6
2022-10-28T05:32:39.712Z,16.6
2022-10-28T05:33:39.726Z,16.7
2022-10-28T05:34:39.628Z,16.7
2022-10-28T05:35:39.637Z,16.7
2022-10-28T05:36:39.638Z,16.7
2022-10-28T05:37:39.653Z,16.7
2022-10-28T05:38:39.645Z,16.7
2022-10-28T05:39:39.653Z,16.6
2022-10-28T05:40:39.688Z,16.6
2022-10-28T05:41:39.663Z,16.6
2022-10-28T05:42:39.676Z,16.6
2022-10-28T05:43:39.593Z,16.6
2022-10-28T05:44:39.606Z,16.5
2022-10-28T05:45:39.701Z,16.5
2022-10-28T05:46:39.714Z,16.4
2022-10-28T05:47:40.190Z,16.4
2022-10-28T05:48:39.732Z,16.3
2022-10-28T05:49:39.605Z,16.3
2022-10-28T05:50:40.037Z,16.3
2022-10-28T05:51:39.602Z,16.3
2022-10-28T05:52:39.660Z,16.3
2022-10-28T05:53:39.636Z,16.3
2022-10-28T05:54:39.669Z,16.3
2022-10-28T05:55:42.689Z,16.3
2022-10-28T05:56:39.675Z,16.4
2022-10-28T05:57:39.689Z,16.5
2022-10-28T05:58:39.735Z,16.5
2022-10-28T05:59:39.684Z,16.6
2022-10-28T06:00:39.703Z,16.5
2022-10-28T06:01:39.762Z,16.5
2022-10-28T06:02:39.619Z,16.5
2022-10-28T06:03:39.694Z,16.5
2022-10-28T06:04:39.723Z,16.7
2022-10-28T06:05:39.604Z,16.7
2022-10-28T06:06:39.740Z,16.7
2022-10-28T06:07:39.615Z,16.8
2022-10-28T06:08:39.594Z,16.9
2022-10-28T06:09:39.759Z,17
2022-10-28T06:10:39.708Z,17
2022-10-28T06:11:38.188Z,17.1
2022-10-28T06:12:38.265Z,17.1
2022-10-28T06:13:38.188Z,17.1
2022-10-28T06:14:38.078Z,17.1
2022-10-28T06:15:38.169Z,17.1
2022-10-28T06:16:38.270Z,17.1
2022-10-28T06:17:38.171Z,17
2022-10-28T06:18:38.179Z,17
2022-10-28T06:19:38.123Z,17.1
2022-10-28T06:20:38.113Z,17.1
2022-10-28T06:21:38.085Z,17.1
2022-10-28T06:22:38.224Z,17.1
2022-10-28T06:23:38.222Z,17.1
2022-10-28T06:24:38.108Z,17.1
2022-10-28T06:25:38.161Z,17.1
2022-10-28T06:26:38.145Z,17.2
2022-10-28T06:27:38.153Z,17.1
2022-10-28T06:28:38.157Z,17.1
2022-10-28T06:29:38.175Z,17.1
2022-10-28T06:30:38.177Z,17.2
2022-10-28T06:31:38.191Z,17.1
2022-10-28T06:32:38.092Z,17.2
2022-10-28T06:33:38.096Z,17.1
2022-10-28T06:34:38.116Z,17.1
2022-10-28T06:35:38.216Z,17.1
2022-10-28T06:36:38.116Z,17.2
2022-10-28T06:37:38.124Z,17.1
2022-10-28T06:38:38.138Z,17.1
2022-10-28T06:39:38.161Z,17.1
2022-10-28T06:40:38.168Z,17.1
2022-10-28T06:41:38.156Z,17.1
2022-10-28T06:42:38.276Z,17.2
2022-10-28T06:43:38.140Z,17.1
2022-10-28T06:44:38.111Z,17.1
2022-10-28T06:45:38.199Z,17.1
2022-10-28T06:46:39.617Z,17.1
2022-10-28T06:47:41.579Z,17.1
2022-10-28T06:48:39.728Z,17
2022-10-28T06:49:39.629Z,17.1
2022-10-28T06:50:39.754Z,17.1
2022-10-28T06:51:39.742Z,17.1
2022-10-28T06:52:39.703Z,17.1
2022-10-28T06:53:39.657Z,17.1
2022-10-28T06:54:39.677Z,17.1
2022-10-28T06:55:39.674Z,17.1
2022-10-28T06:56:39.681Z,17.1
2022-10-28T06:57:39.630Z,17.1
2022-10-28T06:58:39.691Z,17.1
2022-10-28T06:59:39.639Z,17.1
2022-10-28T07:00:39.705Z,17
2022-10-28T07:01:39.954Z,17.1
2022-10-28T07:02:42.813Z,17.1
2022-10-28T07:03:39.727Z,17.2
2022-10-28T07:04:39.748Z,17.2
2022-10-28T07:05:39.642Z,17.2
2022-10-28T07:06:39.748Z,17.2
2022-10-28T07:07:39.664Z,17.2
2022-10-28T07:08:39.667Z,17.2
2022-10-28T07:09:39.649Z,17.2
2022-10-28T07:10:39.692Z,17.3
2022-10-28T07:11:39.688Z,17.3
2022-10-28T07:12:39.665Z,17.3
2022-10-28T07:13:39.812Z,17.3
2022-10-28T07:14:39.704Z,17.2
2022-10-28T07:15:39.660Z,17.3
2022-10-28T07:16:39.730Z,17.3
2022-10-28T07:17:39.750Z,17.2
2022-10-28T07:18:39.736Z,17.2
2022-10-28T07:19:39.758Z,17.3
2022-10-28T07:20:39.657Z,17.3
2022-10-28T07:21:39.704Z,17.3
2022-10-28T07:22:39.711Z,17.3
2022-10-28T07:23:39.676Z,17.3
2022-10-28T07:24:39.683Z,17.4
2022-10-28T07:25:39.722Z,17.4
2022-10-28T07:26:39.681Z,17.4
2022-10-28T07:27:39.819Z,17.4
2022-10-28T07:28:39.709Z,17.3
2022-10-28T07:29:39.723Z,17.4
2022-10-28T07:30:39.729Z,17.4
2022-10-28T07:31:39.744Z,17.5
2022-10-28T07:32:39.741Z,17.4
2022-10-28T07:33:39.751Z,17.5
2022-10-28T07:34:39.659Z,17.5
2022-10-28T07:35:39.665Z,17.5
2022-10-28T07:36:39.769Z,17.4
2022-10-28T07:37:39.777Z,17.4
2022-10-28T07:38:39.693Z,17.5
2022-10-28T07:39:39.687Z,17.5
2022-10-28T07:40:39.681Z,17.5
2022-10-28T07:41:39.676Z,17.5
2022-10-28T07:42:39.712Z,17.5
2022-10-28T07:43:39.718Z,17.6
2022-10-28T07:44:39.827Z,17.6
2022-10-28T07:45:39.729Z,17.6
2022-10-28T07:46:39.663Z,17.6
2022-10-28T07:47:39.681Z,17.6
2022-10-28T07:48:39.748Z,17.5
2022-10-28T07:49:39.767Z,17.5
2022-10-28T07:50:39.764Z,17.5
2022-10-28T07:51:39.768Z,17.6
2022-10-28T07:52:39.771Z,17.6
2022-10-28T07:53:39.792Z,17.8
2022-10-28T07:54:39.663Z,17.8
2022-10-28T07:55:39.733Z,17.8
2022-10-28T07:56:39.695Z,17.7
2022-10-28T07:57:39.745Z,17.8
2022-10-28T07:58:39.655Z,17.8
2022-10-28T07:59:39.663Z,17.8
2022-10-28T08:00:39.850Z,17.9
2022-10-28T08:01:39.880Z,18
2022-10-28T08:02:39.723Z,18
2022-10-28T08:03:39.739Z,18.1
2022-10-28T08:04:39.736Z,18.2
2022-10-28T08:05:39.753Z,18.2
2022-10-28T08:06:39.669Z,18.3
2022-10-28T08:07:39.654Z,18.3
2022-10-28T08:08:39.693Z,18.3
2022-10-28T08:09:39.656Z,18.3
2022-10-28T08:10:39.679Z,18.4
2022-10-28T08:11:39.637Z,18.4
2022-10-28T08:12:39.704Z,18.4
2022-10-28T08:13:40.301Z,18.4
2022-10-28T08:14:39.672Z,18.4
2022-10-28T08:15:39.683Z,18.5
2022-10-28T08:16:39.700Z,18.5
2022-10-28T08:17:39.718Z,18.7
2022-10-28T08:18:39.705Z,18.7
2022-10-28T08:19:39.620Z,18.7
2022-10-28T08:20:39.624Z,18.7
2022-10-28T08:21:39.721Z,18.7
2022-10-28T08:22:39.821Z,18.7
2022-10-28T08:23:39.676Z,18.9
2022-10-28T08:24:39.751Z,18.8
2022-10-28T08:25:39.641Z,18.8
2022-10-28T08:26:39.745Z,18.9
2022-10-28T08:27:39.665Z,18.9
2022-10-28T08:28:39.693Z,19
2022-10-28T08:29:39.659Z,19
2022-10-28T08:30:56.713Z,19
2022-10-28T08:31:39.674Z,19.1
2022-10-28T08:32:39.694Z,19.1
2022-10-28T08:33:39.686Z,19.2
2022-10-28T08:34:42.685Z,19.2
2022-10-28T08:35:39.619Z,19.3
2022-10-28T08:36:39.637Z,19.2
2022-10-28T08:37:39.719Z,19.3
2022-10-28T08:38:45.082Z,19.3
2022-10-28T08:39:39.671Z,19.4
2022-10-28T08:40:39.693Z,19.5
2022-10-28T08:41:39.632Z,19.5
2022-10-28T08:42:39.634Z,19.7
2022-10-28T08:43:52.789Z,19.6
2022-10-28T08:44:39.623Z,19.6
2022-10-28T08:45:39.636Z,19.6
2022-10-28T08:46:39.630Z,19.7
2022-10-28T08:47:39.763Z,19.6
2022-10-28T08:48:39.672Z,19.7
2022-10-28T08:49:39.640Z,19.7
2022-10-28T08:50:39.711Z,19.7
2022-10-28T08:51:39.720Z,19.7
2022-10-28T08:52:39.725Z,19.7
2022-10-28T08:53:39.725Z,19.7
2022-10-28T08:54:39.741Z,19.7
2022-10-28T08:55:39.776Z,19.8
2022-10-28T08:56:39.757Z,19.7
2022-10-28T08:57:39.657Z,19.8
2022-10-28T08:58:39.666Z,19.8
2022-10-28T08:59:39.807Z,19.8
2022-10-28T09:00:39.636Z,19.8
2022-10-28T09:01:39.822Z,19.8
2022-10-28T09:02:39.700Z,19.8
2022-10-28T09:03:39.707Z,19.8
2022-10-28T09:04:39.646Z,20
2022-10-28T09:05:39.651Z,19.9
2022-10-28T09:06:39.656Z,19.9
2022-10-28T09:07:39.654Z,19.9
2022-10-28T09:08:39.645Z,19.8
2022-10-28T09:09:39.644Z,19.9
2022-10-28T09:10:39.705Z,19.8
2022-10-28T09:11:39.684Z,19.7
2022-10-28T09:12:39.644Z,19.7
2022-10-28T09:13:39.710Z,19.7
2022-10-28T09:14:39.644Z,19.6
2022-10-28T09:16:39.706Z,19.7
2022-10-28T09:17:39.645Z,19.7
2022-10-28T09:18:39.680Z,19.8
2022-10-28T09:19:39.693Z,19.8
2022-10-28T09:20:39.643Z,19.8
2022-10-28T09:21:39.648Z,19.8
2022-10-28T09:22:39.643Z,19.9
2022-10-28T09:23:39.648Z,20
2022-10-28T09:24:39.724Z,20.1
2022-10-28T09:25:39.667Z,20.2
2022-10-28T09:26:39.681Z,20.3
2022-10-28T09:27:39.681Z,20.4
2022-10-28T09:28:39.656Z,20.4
2022-10-28T09:29:43.239Z,20.5
2022-10-28T09:30:39.677Z,20.7
2022-10-28T09:31:39.659Z,20.7
2022-10-28T09:32:39.640Z,20.8
2022-10-28T09:33:39.654Z,20.7
2022-10-28T09:34:39.695Z,20.8
2022-10-28T09:35:39.706Z,20.9
2022-10-28T09:36:39.654Z,20.9
2022-10-28T09:37:39.655Z,21
2022-10-28T09:38:39.733Z,20.8
2022-10-28T09:39:39.739Z,20.9
2022-10-28T09:40:39.738Z,20.9
2022-10-28T09:41:39.705Z,21
2022-10-28T09:43:39.759Z,21
2022-10-28T09:44:39.769Z,21
2022-10-28T09:45:39.662Z,21.1
2022-10-28T09:46:39.686Z,21.2
2022-10-28T09:47:39.689Z,21.2
2022-10-28T09:48:39.688Z,21.3
2022-10-28T09:49:39.713Z,21.4
2022-10-28T09:50:39.702Z,21.4
2022-10-28T09:51:39.703Z,21.3
2022-10-28T09:52:39.720Z,21.4
2022-10-28T09:53:39.770Z,21.3
2022-10-28T09:54:40.651Z,21.4
2022-10-28T09:55:39.744Z,21.5
2022-10-28T09:56:39.755Z,21.5
2022-10-28T09:57:39.763Z,21.6
2022-10-28T09:58:39.771Z,21.7
2022-10-28T09:59:39.677Z,21.8
2022-10-28T10:00:39.684Z,21.9
2022-10-28T10:01:39.784Z,21.8
2022-10-28T10:02:39.835Z,21.8
2022-10-28T10:03:39.728Z,21.7
2022-10-28T10:04:39.716Z,21.6
2022-10-28T10:05:39.708Z,21.6
2022-10-28T10:06:39.717Z,21.6
2022-10-28T10:07:39.729Z,21.5
2022-10-28T10:08:39.662Z,21.6
2022-10-28T10:09:39.741Z,21.5
2022-10-28T10:10:39.751Z,21.5
2022-10-28T10:11:39.764Z,21.4
2022-10-28T10:12:39.763Z,21.4
2022-10-28T10:13:39.771Z,21.4
2022-10-28T10:14:39.656Z,21.5
2022-10-28T10:15:39.779Z,21.6
2022-10-28T10:16:39.688Z,21.7
2022-10-28T10:17:39.695Z,21.8
2022-10-28T10:18:39.697Z,21.9
2022-10-28T10:19:39.706Z,22.2
2022-10-28T10:20:39.833Z,22.3
2022-10-28T10:21:39.698Z,22.4
2022-10-28T10:22:39.650Z,22.5
2022-10-28T10:24:39.754Z,22.8
2022-10-28T10:25:39.744Z,22.9
2022-10-28T10:26:39.656Z,22.9
2022-10-28T10:27:39.653Z,22.9
2022-10-28T10:28:39.772Z,23
2022-10-28T10:29:39.768Z,23.1
2022-10-28T10:30:39.696Z,23.2
2022-10-28T10:31:39.687Z,23.1
2022-10-28T10:32:39.715Z,23.1
2022-10-28T10:33:39.709Z,23
2022-10-28T10:34:39.708Z,23.1
2022-10-28T10:35:39.710Z,23
2022-10-28T10:36:39.827Z,23
2022-10-28T10:37:39.722Z,23.2
2022-10-28T10:38:39.649Z,23.1
2022-10-28T10:39:39.751Z,23.2
2022-10-28T10:40:39.746Z,23.3
2022-10-28T10:41:39.659Z,23.3
2022-10-28T10:42:51.595Z,23.4
2022-10-28T10:43:39.932Z,23.5
2022-10-28T10:44:39.769Z,23.5
2022-10-28T10:45:39.793Z,23.4
2022-10-28T10:46:39.675Z,23.4
2022-10-28T10:47:39.672Z,23.4
2022-10-28T10:48:39.668Z,23.4
2022-10-28T10:49:39.697Z,23.3
2022-10-28T10:50:39.710Z,23.3
2022-10-28T10:51:40.938Z,23.4
2022-10-28T10:52:39.729Z,23.5
2022-10-28T10:53:39.725Z,23.6
2022-10-28T10:54:39.728Z,23.7
2022-10-28T10:55:39.745Z,23.8
2022-10-28T10:56:39.749Z,23.9
2022-10-28T10:57:39.666Z,23.8
2022-10-28T10:58:39.757Z,23.8
2022-10-28T10:59:39.772Z,23.7
2022-10-28T11:00:39.727Z,23.6
2022-10-28T11:01:39.826Z,23.6
2022-10-28T11:02:40.069Z,23.6
2022-10-28T11:03:39.690Z,23.8
2022-10-28T11:04:39.664Z,23.8
2022-10-28T11:05:39.821Z,23.8
2022-10-28T11:06:39.670Z,24
2022-10-28T11:07:39.832Z,23.9
2022-10-28T11:08:39.726Z,23.8
2022-10-28T11:09:39.672Z,23.8
2022-10-28T11:10:39.734Z,23.9
2022-10-28T11:11:39.757Z,24
2022-10-28T11:12:39.756Z,24
2022-10-28T11:13:42.273Z,24.1
2022-10-28T11:14:39.679Z,24.2
2022-10-28T11:15:39.721Z,24.3
2022-10-28T11:16:39.769Z,24.5
2022-10-28T11:17:39.794Z,24.6
2022-10-28T11:18:39.693Z,24.9
2022-10-28T11:19:39.811Z,25.2
2022-10-28T11:20:39.704Z,25.5
2022-10-28T11:21:39.702Z,25.8
2022-10-28T11:22:39.830Z,25.9
2022-10-28T11:23:39.728Z,26.3
2022-10-28T11:24:39.729Z,26.5
2022-10-28T11:25:39.685Z,26.8
2022-10-28T11:26:39.747Z,27.3
2022-10-28T11:27:39.747Z,27.8
2022-10-28T11:28:39.668Z,27.7
2022-10-28T11:29:39.777Z,28
2022-10-28T11:30:39.765Z,28.4
2022-10-28T11:31:39.769Z,28.5
2022-10-28T11:32:48.790Z,28.7
2022-10-28T11:33:39.950Z,28.7
2022-10-28T11:34:39.717Z,28.3
2022-10-28T11:35:39.705Z,28.2
2022-10-28T11:36:39.706Z,27.8
2022-10-28T11:37:39.721Z,27.5
2022-10-28T11:38:44.622Z,27.8
2022-10-28T11:39:39.831Z,28.3
2022-10-28T11:40:39.681Z,28.4
2022-10-28T11:41:39.680Z,28.6
2022-10-28T11:42:39.772Z,28.9
2022-10-28T11:43:39.768Z,29.2
2022-10-28T11:45:39.774Z,29.5
2022-10-28T11:46:39.776Z,29.3
2022-10-28T11:47:39.810Z,29.6
2022-10-28T11:48:39.791Z,29.4
2022-10-28T11:49:39.686Z,29.2
2022-10-28T11:50:39.805Z,29.3
2022-10-28T11:51:39.714Z,29.7
2022-10-28T11:52:44.299Z,29.9
2022-10-28T11:53:39.720Z,29.6
2022-10-28T11:54:39.839Z,29
2022-10-28T11:55:39.679Z,29
2022-10-28T11:56:39.755Z,28.9
2022-10-28T11:57:39.758Z,28.9
2022-10-28T11:58:39.757Z,28.6
2022-10-28T11:59:39.686Z,28.4
2022-10-28T12:00:39.772Z,28.3
2022-10-28T12:01:39.963Z,28.4
2022-10-28T12:02:39.881Z,28.5
2022-10-28T12:03:39.787Z,28.2
2022-10-28T12:04:39.795Z,28.1
2022-10-28T12:05:39.797Z,28.4
2022-10-28T12:06:39.709Z,28.7
2022-10-28T12:07:39.677Z,29.4
2022-10-28T12:08:39.745Z,29.7
2022-10-28T12:09:39.835Z,29.8
2022-10-28T12:10:39.834Z,30.1
2022-10-28T12:11:39.752Z,30.6
2022-10-28T12:12:41.395Z,30.7
2022-10-28T12:13:39.751Z,30.8
2022-10-28T12:14:39.769Z,30.8
2022-10-28T12:15:39.758Z,31
2022-10-28T12:16:39.783Z,31
2022-10-28T12:17:39.952Z,31.4
2022-10-28T12:18:39.718Z,31.1
2022-10-28T12:19:39.793Z,30.7
2022-10-28T12:20:39.701Z,30.8
2022-10-28T12:21:39.692Z,30.9
2022-10-28T12:22:39.933Z,31.2
2022-10-28T12:23:39.728Z,31.2
2022-10-28T12:24:39.916Z,31.7
2022-10-28T12:25:40.098Z,31.5
2022-10-28T12:26:39.971Z,31.9
2022-10-28T12:27:39.871Z,32.3
2022-10-28T12:28:39.767Z,32.4
2022-10-28T12:29:39.753Z,32.3
2022-10-28T12:30:39.778Z,32.6
2022-10-28T12:31:39.712Z,33
2022-10-28T12:32:39.734Z,32.9
2022-10-28T12:33:39.822Z,33
2022-10-28T12:34:39.824Z,33.3
2022-10-28T12:35:39.698Z,33.3
2022-10-28T12:36:40.071Z,32.8
2022-10-28T12:37:42.173Z,33
2022-10-28T12:38:39.734Z,32.8
2022-10-28T12:39:39.881Z,32.3
2022-10-28T12:40:39.840Z,32.3
2022-10-28T12:41:39.766Z,32.2
2022-10-28T12:42:39.761Z,31.9
2022-10-28T12:43:39.875Z,31.7
2022-10-28T12:44:39.702Z,31.2
2022-10-28T12:45:39.690Z,31.5
2022-10-28T12:46:40.184Z,31.7
2022-10-28T12:47:43.014Z,31.8
2022-10-28T12:48:39.778Z,31.5
2022-10-28T12:49:39.852Z,31.4
2022-10-28T12:50:39.792Z,30.4
2022-10-28T12:51:39.903Z,29.8
2022-10-28T12:52:39.855Z,29.2
2022-10-28T12:53:39.753Z,28.7
2022-10-28T12:54:39.871Z,28.1
2022-10-28T12:55:39.697Z,27.8
2022-10-28T12:56:39.920Z,28
2022-10-28T12:57:39.720Z,27.9
2022-10-28T12:58:39.711Z,27.7
2022-10-28T12:59:39.786Z,27.5
2022-10-28T13:00:39.806Z,27.8
2022-10-28T13:01:39.953Z,27.8
2022-10-28T13:02:39.703Z,27.9
2022-10-28T13:03:39.761Z,28.2
2022-10-28T13:04:39.827Z,28.2
2022-10-28T13:05:39.734Z,27.7
2022-10-28T13:06:39.771Z,27.6
2022-10-28T13:07:39.893Z,27.6
2022-10-28T13:08:39.759Z,27.5
2022-10-28T13:09:39.946Z,27.6
2022-10-28T13:10:39.704Z,27.5
2022-10-28T13:11:39.800Z,27.6
2022-10-28T13:12:39.826Z,27.6
2022-10-28T13:13:39.780Z,27.5
2022-10-28T13:14:39.702Z,27.5
2022-10-28T13:15:40.100Z,27.4
2022-10-28T13:16:39.714Z,27.3
2022-10-28T13:17:40.202Z,27.4
2022-10-28T13:18:39.735Z,27.4
2022-10-28T13:19:39.975Z,27.4
2022-10-28T13:20:39.763Z,27.2
2022-10-28T13:21:39.736Z,27.2
2022-10-28T13:22:43.288Z,27.1
2022-10-28T13:23:39.788Z,27
2022-10-28T13:24:39.724Z,26.9
2022-10-28T13:25:39.707Z,26.9